sensor_id;sensor_type;location;lat;lon;timestamp;P1;durP1;ratioP1;P2;durP2;ratioP2
40058;SDS011;25763;49.972;8.568;2023-07-20T00:01:08;63.35;;;60.17;;
40058;SDS011;25763;49.972;8.568;2023-07-20T00:03:34;62.60;;;59.42;;
40058;SDS011;25763;49.972;8.568;2023-07-20T00:05:59;63.83;;;60.63;;
40058;SDS011;25763;49.972;8.568;2023-07-20T00:08:24;70.00;;;66.50;;
40058;SDS011;25763;49.972;8.568;2023-07-20T00:10:50;80.90;;;75.90;;
40058;SDS011;25763;49.972;8.568;2023-07-20T00:13:15;90.28;;;85.55;;
40058;SDS011;25763;49.972;8.568;2023-07-20T00:15:41;90.20;;;85.72;;
40058;SDS011;25763;49.972;8.568;2023-07-20T00:18:06;89.88;;;85.32;;
40058;SDS011;25763;49.972;8.568;2023-07-20T00:20:32;94.43;;;89.75;;
40058;SDS011;25763;49.972;8.568;2023-07-20T00:22:57;94.50;;;89.82;;
40058;SDS011;25763;49.972;8.568;2023-07-20T00:25:23;98.57;;;93.75;;
40058;SDS011;25763;49.972;8.568;2023-07-20T00:27:49;95.47;;;90.80;;
40058;SDS011;25763;49.972;8.568;2023-07-20T00:30:14;92.05;;;87.50;;
40058;SDS011;25763;49.972;8.568;2023-07-20T00:32:40;99.45;;;94.53;;
40058;SDS011;25763;49.972;8.568;2023-07-20T00:35:06;98.55;;;93.70;;
40058;SDS011;25763;49.972;8.568;2023-07-20T00:37:32;108.00;;;102.65;;
40058;SDS011;25763;49.972;8.568;2023-07-20T00:39:57;108.40;;;103.07;;
40058;SDS011;25763;49.972;8.568;2023-07-20T00:42:22;104.45;;;99.32;;
40058;SDS011;25763;49.972;8.568;2023-07-20T00:44:48;82.35;;;78.30;;
40058;SDS011;25763;49.972;8.568;2023-07-20T00:47:13;82.80;;;78.40;;
40058;SDS011;25763;49.972;8.568;2023-07-20T00:49:38;74.03;;;70.35;;
40058;SDS011;25763;49.972;8.568;2023-07-20T00:52:05;68.22;;;64.82;;
40058;SDS011;25763;49.972;8.568;2023-07-20T00:54:32;64.55;;;61.25;;
40058;SDS011;25763;49.972;8.568;2023-07-20T00:56:57;56.97;;;54.08;;
40058;SDS011;25763;49.972;8.568;2023-07-20T00:59:23;49.65;;;47.15;;
40058;SDS011;25763;49.972;8.568;2023-07-20T01:01:49;47.45;;;45.00;;
40058;SDS011;25763;49.972;8.568;2023-07-20T01:04:14;40.65;;;38.55;;
40058;SDS011;25763;49.972;8.568;2023-07-20T01:06:53;38.85;;;36.85;;
40058;SDS011;25763;49.972;8.568;2023-07-20T01:09:24;37.05;;;35.15;;
40058;SDS011;25763;49.972;8.568;2023-07-20T01:14:48;32.17;;;30.50;;
40058;SDS011;25763;49.972;8.568;2023-07-20T01:17:14;24.15;;;22.85;;
40058;SDS011;25763;49.972;8.568;2023-07-20T01:19:39;24.70;;;23.40;;
40058;SDS011;25763;49.972;8.568;2023-07-20T01:33:11;21.67;;;20.48;;
40058;SDS011;25763;49.972;8.568;2023-07-20T01:35:38;22.40;;;21.20;;
40058;SDS011;25763;49.972;8.568;2023-07-20T01:38:05;23.67;;;22.02;;
40058;SDS011;25763;49.972;8.568;2023-07-20T01:40:32;20.60;;;19.50;;
40058;SDS011;25763;49.972;8.568;2023-07-20T01:42:57;18.98;;;17.88;;
40058;SDS011;25763;49.972;8.568;2023-07-20T01:45:22;20.95;;;19.83;;
40058;SDS011;25763;49.972;8.568;2023-07-20T01:47:48;21.13;;;19.92;;
40058;SDS011;25763;49.972;8.568;2023-07-20T01:50:13;21.55;;;20.35;;
40058;SDS011;25763;49.972;8.568;2023-07-20T01:52:38;19.27;;;18.00;;
40058;SDS011;25763;49.972;8.568;2023-07-20T01:55:04;21.13;;;19.95;;
40058;SDS011;25763;49.972;8.568;2023-07-20T01:57:30;24.58;;;23.27;;
40058;SDS011;25763;49.972;8.568;2023-07-20T01:59:55;24.85;;;23.52;;
40058;SDS011;25763;49.972;8.568;2023-07-20T02:02:20;23.15;;;21.90;;
40058;SDS011;25763;49.972;8.568;2023-07-20T02:04:46;23.92;;;22.63;;
40058;SDS011;25763;49.972;8.568;2023-07-20T02:07:11;21.50;;;20.25;;
40058;SDS011;25763;49.972;8.568;2023-07-20T02:09:37;22.58;;;21.38;;
40058;SDS011;25763;49.972;8.568;2023-07-20T02:12:03;25.00;;;23.70;;
40058;SDS011;25763;49.972;8.568;2023-07-20T02:14:28;26.58;;;25.17;;
40058;SDS011;25763;49.972;8.568;2023-07-20T02:16:54;25.52;;;24.13;;
40058;SDS011;25763;49.972;8.568;2023-07-20T02:19:24;27.65;;;26.15;;
40058;SDS011;25763;49.972;8.568;2023-07-20T02:21:50;33.55;;;31.75;;
40058;SDS011;25763;49.972;8.568;2023-07-20T02:24:15;34.60;;;32.63;;
40058;SDS011;25763;49.972;8.568;2023-07-20T02:26:40;29.30;;;27.77;;
40058;SDS011;25763;49.972;8.568;2023-07-20T02:29:06;29.38;;;27.83;;
40058;SDS011;25763;49.972;8.568;2023-07-20T02:31:32;33.78;;;31.77;;
40058;SDS011;25763;49.972;8.568;2023-07-20T02:33:58;33.15;;;31.35;;
40058;SDS011;25763;49.972;8.568;2023-07-20T02:36:23;32.58;;;30.55;;
40058;SDS011;25763;49.972;8.568;2023-07-20T02:38:48;31.65;;;29.80;;
40058;SDS011;25763;49.972;8.568;2023-07-20T02:41:14;27.95;;;26.48;;
40058;SDS011;25763;49.972;8.568;2023-07-20T02:43:39;27.25;;;25.83;;
40058;SDS011;25763;49.972;8.568;2023-07-20T02:46:04;26.55;;;25.15;;
40058;SDS011;25763;49.972;8.568;2023-07-20T02:48:30;28.55;;;27.05;;
40058;SDS011;25763;49.972;8.568;2023-07-20T02:50:55;28.30;;;26.70;;
40058;SDS011;25763;49.972;8.568;2023-07-20T02:53:20;26.83;;;25.38;;
40058;SDS011;25763;49.972;8.568;2023-07-20T02:55:46;25.40;;;24.08;;
40058;SDS011;25763;49.972;8.568;2023-07-20T02:58:12;26.27;;;24.85;;
40058;SDS011;25763;49.972;8.568;2023-07-20T03:00:38;26.50;;;25.05;;
40058;SDS011;25763;49.972;8.568;2023-07-20T03:03:03;20.67;;;19.55;;
40058;SDS011;25763;49.972;8.568;2023-07-20T03:05:28;23.13;;;21.88;;
40058;SDS011;25763;49.972;8.568;2023-07-20T03:07:55;21.63;;;20.42;;
40058;SDS011;25763;49.972;8.568;2023-07-20T03:10:20;20.77;;;19.65;;
40058;SDS011;25763;49.972;8.568;2023-07-20T03:12:46;19.23;;;18.17;;
40058;SDS011;25763;49.972;8.568;2023-07-20T03:15:11;19.00;;;17.90;;
40058;SDS011;25763;49.972;8.568;2023-07-20T03:17:36;19.92;;;18.83;;
40058;SDS011;25763;49.972;8.568;2023-07-20T03:20:02;19.75;;;18.65;;
40058;SDS011;25763;49.972;8.568;2023-07-20T03:22:28;17.90;;;16.90;;
40058;SDS011;25763;49.972;8.568;2023-07-20T03:24:53;17.90;;;16.90;;
40058;SDS011;25763;49.972;8.568;2023-07-20T03:27:18;18.52;;;17.48;;
40058;SDS011;25763;49.972;8.568;2023-07-20T03:29:44;17.50;;;16.50;;
40058;SDS011;25763;49.972;8.568;2023-07-20T03:32:09;18.20;;;17.20;;
40058;SDS011;25763;49.972;8.568;2023-07-20T03:34:35;17.92;;;16.92;;
40058;SDS011;25763;49.972;8.568;2023-07-20T03:37:00;16.80;;;15.90;;
40058;SDS011;25763;49.972;8.568;2023-07-20T03:39:26;16.00;;;15.10;;
40058;SDS011;25763;49.972;8.568;2023-07-20T03:41:52;18.25;;;17.25;;
40058;SDS011;25763;49.972;8.568;2023-07-20T03:44:17;16.83;;;15.82;;
40058;SDS011;25763;49.972;8.568;2023-07-20T03:46:43;16.85;;;15.90;;
40058;SDS011;25763;49.972;8.568;2023-07-20T03:49:09;14.98;;;14.13;;
40058;SDS011;25763;49.972;8.568;2023-07-20T03:51:35;14.85;;;14.02;;
40058;SDS011;25763;49.972;8.568;2023-07-20T03:54:01;15.65;;;14.65;;
40058;SDS011;25763;49.972;8.568;2023-07-20T03:56:26;15.48;;;14.57;;
40058;SDS011;25763;49.972;8.568;2023-07-20T03:58:51;16.13;;;15.23;;
40058;SDS011;25763;49.972;8.568;2023-07-20T04:01:17;17.35;;;16.38;;
40058;SDS011;25763;49.972;8.568;2023-07-20T04:03:42;17.38;;;16.42;;
40058;SDS011;25763;49.972;8.568;2023-07-20T04:06:08;22.02;;;20.80;;
40058;SDS011;25763;49.972;8.568;2023-07-20T04:08:34;23.33;;;21.95;;
40058;SDS011;25763;49.972;8.568;2023-07-20T04:11:03;26.30;;;24.90;;
40058;SDS011;25763;49.972;8.568;2023-07-20T04:13:28;35.05;;;33.15;;
40058;SDS011;25763;49.972;8.568;2023-07-20T04:15:53;32.17;;;30.50;;
40058;SDS011;25763;49.972;8.568;2023-07-20T04:18:20;30.83;;;29.20;;
40058;SDS011;25763;49.972;8.568;2023-07-20T04:20:45;32.45;;;30.63;;
40058;SDS011;25763;49.972;8.568;2023-07-20T04:23:11;30.98;;;29.33;;
40058;SDS011;25763;49.972;8.568;2023-07-20T04:25:36;37.88;;;35.85;;
40058;SDS011;25763;49.972;8.568;2023-07-20T04:28:05;37.78;;;35.83;;
40058;SDS011;25763;49.972;8.568;2023-07-20T04:30:36;38.67;;;36.63;;
40058;SDS011;25763;49.972;8.568;2023-07-20T04:33:03;43.90;;;41.65;;
40058;SDS011;25763;49.972;8.568;2023-07-20T04:38:14;46.95;;;44.53;;
40058;SDS011;25763;49.972;8.568;2023-07-20T04:40:45;36.40;;;34.53;;
40058;SDS011;25763;49.972;8.568;2023-07-20T04:43:12;45.25;;;42.92;;
40058;SDS011;25763;49.972;8.568;2023-07-20T04:45:38;35.15;;;33.22;;
40058;SDS011;25763;49.972;8.568;2023-07-20T04:48:06;34.92;;;33.10;;
40058;SDS011;25763;49.972;8.568;2023-07-20T04:50:34;33.38;;;31.55;;
40058;SDS011;25763;49.972;8.568;2023-07-20T04:52:59;28.60;;;27.05;;
40058;SDS011;25763;49.972;8.568;2023-07-20T04:55:25;33.33;;;31.58;;
40058;SDS011;25763;49.972;8.568;2023-07-20T04:57:50;33.72;;;31.98;;
40058;SDS011;25763;49.972;8.568;2023-07-20T05:00:16;36.33;;;34.38;;
40058;SDS011;25763;49.972;8.568;2023-07-20T05:02:42;32.90;;;31.17;;
40058;SDS011;25763;49.972;8.568;2023-07-20T05:05:07;34.60;;;32.80;;
40058;SDS011;25763;49.972;8.568;2023-07-20T05:07:34;36.38;;;34.45;;
40058;SDS011;25763;49.972;8.568;2023-07-20T05:09:59;38.33;;;36.25;;
40058;SDS011;25763;49.972;8.568;2023-07-20T05:12:25;27.75;;;26.30;;
40058;SDS011;25763;49.972;8.568;2023-07-20T05:14:50;31.55;;;29.85;;
40058;SDS011;25763;49.972;8.568;2023-07-20T05:17:16;36.78;;;34.85;;
40058;SDS011;25763;49.972;8.568;2023-07-20T05:19:41;36.95;;;35.05;;
40058;SDS011;25763;49.972;8.568;2023-07-20T05:22:06;33.75;;;32.00;;
40058;SDS011;25763;49.972;8.568;2023-07-20T05:24:32;30.17;;;28.60;;
40058;SDS011;25763;49.972;8.568;2023-07-20T05:26:58;23.15;;;21.92;;
40058;SDS011;25763;49.972;8.568;2023-07-20T05:29:24;21.58;;;20.38;;
40058;SDS011;25763;49.972;8.568;2023-07-20T05:31:50;24.70;;;23.38;;
40058;SDS011;25763;49.972;8.568;2023-07-20T05:34:15;20.48;;;19.38;;
40058;SDS011;25763;49.972;8.568;2023-07-20T05:36:41;20.30;;;19.20;;
40058;SDS011;25763;49.972;8.568;2023-07-20T05:39:06;19.83;;;18.73;;
40058;SDS011;25763;49.972;8.568;2023-07-20T05:41:31;18.55;;;17.55;;
40058;SDS011;25763;49.972;8.568;2023-07-20T06:10:16;24.55;;;23.17;;
40058;SDS011;25763;49.972;8.568;2023-07-20T06:13:01;22.65;;;21.42;;
40058;SDS011;25763;49.972;8.568;2023-07-20T06:15:50;21.77;;;20.60;;
40058;SDS011;25763;49.972;8.568;2023-07-20T06:18:36;22.30;;;21.05;;
40058;SDS011;25763;49.972;8.568;2023-07-20T06:21:22;16.58;;;15.60;;
40058;SDS011;25763;49.972;8.568;2023-07-20T06:24:08;22.63;;;21.40;;
40058;SDS011;25763;49.972;8.568;2023-07-20T06:26:53;29.13;;;27.23;;
40058;SDS011;25763;49.972;8.568;2023-07-20T06:29:39;27.55;;;26.10;;
40058;SDS011;25763;49.972;8.568;2023-07-20T06:32:25;46.13;;;43.78;;
40058;SDS011;25763;49.972;8.568;2023-07-20T06:35:10;45.35;;;43.08;;
40058;SDS011;25763;49.972;8.568;2023-07-20T06:37:56;47.88;;;45.42;;
40058;SDS011;25763;49.972;8.568;2023-07-20T06:40:42;55.05;;;52.17;;
40058;SDS011;25763;49.972;8.568;2023-07-20T06:43:28;50.53;;;47.97;;
40058;SDS011;25763;49.972;8.568;2023-07-20T06:46:14;45.45;;;43.15;;
40058;SDS011;25763;49.972;8.568;2023-07-20T06:49:02;53.83;;;51.13;;
40058;SDS011;25763;49.972;8.568;2023-07-20T06:51:51;50.20;;;47.65;;
40058;SDS011;25763;49.972;8.568;2023-07-20T06:54:36;44.95;;;42.65;;
40058;SDS011;25763;49.972;8.568;2023-07-20T06:57:22;36.47;;;34.60;;
40058;SDS011;25763;49.972;8.568;2023-07-20T07:00:08;41.42;;;39.33;;
40058;SDS011;25763;49.972;8.568;2023-07-20T07:02:54;33.78;;;32.00;;
40058;SDS011;25763;49.972;8.568;2023-07-20T07:05:39;40.30;;;38.17;;
40058;SDS011;25763;49.972;8.568;2023-07-20T07:08:25;44.90;;;42.60;;
40058;SDS011;25763;49.972;8.568;2023-07-20T07:11:11;53.42;;;50.60;;
40058;SDS011;25763;49.972;8.568;2023-07-20T07:13:57;51.67;;;49.10;;
40058;SDS011;25763;49.972;8.568;2023-07-20T07:16:42;44.90;;;42.60;;
40058;SDS011;25763;49.972;8.568;2023-07-20T07:19:28;47.45;;;45.05;;
40058;SDS011;25763;49.972;8.568;2023-07-20T07:22:14;35.88;;;34.00;;
40058;SDS011;25763;49.972;8.568;2023-07-20T07:24:59;34.00;;;32.25;;
40058;SDS011;25763;49.972;8.568;2023-07-20T07:27:45;129.68;;;123.35;;
40058;SDS011;25763;49.972;8.568;2023-07-20T07:30:31;153.73;;;146.25;;
40058;SDS011;25763;49.972;8.568;2023-07-20T07:33:16;173.65;;;165.25;;
40058;SDS011;25763;49.972;8.568;2023-07-20T07:36:02;184.13;;;175.25;;
40058;SDS011;25763;49.972;8.568;2023-07-20T07:38:48;208.27;;;198.23;;
40058;SDS011;25763;49.972;8.568;2023-07-20T07:41:34;177.68;;;169.10;;
40058;SDS011;25763;49.972;8.568;2023-07-20T07:44:19;209.50;;;199.48;;
40058;SDS011;25763;49.972;8.568;2023-07-20T07:47:06;209.38;;;199.30;;
40058;SDS011;25763;49.972;8.568;2023-07-20T07:49:52;157.90;;;150.20;;
40058;SDS011;25763;49.972;8.568;2023-07-20T07:52:38;180.05;;;171.38;;
40058;SDS011;25763;49.972;8.568;2023-07-20T07:55:24;159.18;;;151.43;;
40058;SDS011;25763;49.972;8.568;2023-07-20T07:58:11;169.65;;;161.38;;
40058;SDS011;25763;49.972;8.568;2023-07-20T08:00:57;208.88;;;198.88;;
40058;SDS011;25763;49.972;8.568;2023-07-20T08:03:43;129.77;;;123.22;;
40058;SDS011;25763;49.972;8.568;2023-07-20T08:06:28;110.43;;;105.00;;
40058;SDS011;25763;49.972;8.568;2023-07-20T08:09:14;64.85;;;61.60;;
40058;SDS011;25763;49.972;8.568;2023-07-20T08:11:59;71.45;;;67.72;;
40058;SDS011;25763;49.972;8.568;2023-07-20T08:14:45;63.20;;;60.05;;
40058;SDS011;25763;49.972;8.568;2023-07-20T08:17:31;71.45;;;67.90;;
40058;SDS011;25763;49.972;8.568;2023-07-20T08:20:17;82.65;;;78.53;;
40058;SDS011;25763;49.972;8.568;2023-07-20T08:23:03;79.10;;;75.13;;
40058;SDS011;25763;49.972;8.568;2023-07-20T08:25:49;84.93;;;80.72;;
40058;SDS011;25763;49.972;8.568;2023-07-20T08:28:34;72.53;;;68.90;;
40058;SDS011;25763;49.972;8.568;2023-07-20T08:31:20;77.45;;;73.63;;
40058;SDS011;25763;49.972;8.568;2023-07-20T08:34:06;100.40;;;95.47;;
40058;SDS011;25763;49.972;8.568;2023-07-20T08:36:52;88.55;;;84.20;;
40058;SDS011;25763;49.972;8.568;2023-07-20T08:39:38;95.20;;;90.47;;
40058;SDS011;25763;49.972;8.568;2023-07-20T08:42:23;90.53;;;86.05;;
40058;SDS011;25763;49.972;8.568;2023-07-20T08:45:09;124.32;;;118.25;;
40058;SDS011;25763;49.972;8.568;2023-07-20T08:47:59;131.10;;;124.68;;
40058;SDS011;25763;49.972;8.568;2023-07-20T08:50:46;128.85;;;122.53;;
40058;SDS011;25763;49.972;8.568;2023-07-20T08:53:34;130.68;;;124.20;;
40058;SDS011;25763;49.972;8.568;2023-07-20T08:56:20;126.80;;;120.57;;
40058;SDS011;25763;49.972;8.568;2023-07-20T08:59:08;120.88;;;114.93;;
40058;SDS011;25763;49.972;8.568;2023-07-20T09:01:53;100.70;;;95.47;;
40058;SDS011;25763;49.972;8.568;2023-07-20T09:04:40;93.40;;;88.82;;
40058;SDS011;25763;49.972;8.568;2023-07-20T09:07:28;82.03;;;77.85;;
40058;SDS011;25763;49.972;8.568;2023-07-20T09:10:14;84.38;;;80.20;;
40058;SDS011;25763;49.972;8.568;2023-07-20T09:12:59;80.13;;;76.10;;
40058;SDS011;25763;49.972;8.568;2023-07-20T09:15:53;122.82;;;116.78;;
40058;SDS011;25763;49.972;8.568;2023-07-20T09:18:39;99.20;;;94.30;;
40058;SDS011;25763;49.972;8.568;2023-07-20T09:21:28;116.32;;;110.60;;
40058;SDS011;25763;49.972;8.568;2023-07-20T09:24:17;109.65;;;104.25;;
40058;SDS011;25763;49.972;8.568;2023-07-20T09:27:03;119.55;;;113.68;;
40058;SDS011;25763;49.972;8.568;2023-07-20T09:29:50;119.60;;;113.75;;
40058;SDS011;25763;49.972;8.568;2023-07-20T09:32:43;123.05;;;117.00;;
40058;SDS011;25763;49.972;8.568;2023-07-20T09:35:30;109.95;;;104.53;;
40058;SDS011;25763;49.972;8.568;2023-07-20T09:38:16;90.32;;;85.88;;
40058;SDS011;25763;49.972;8.568;2023-07-20T09:41:01;40.65;;;38.60;;
40058;SDS011;25763;49.972;8.568;2023-07-20T09:43:47;34.30;;;32.53;;
40058;SDS011;25763;49.972;8.568;2023-07-20T09:46:43;41.67;;;39.58;;
40058;SDS011;25763;49.972;8.568;2023-07-20T09:49:30;41.80;;;39.65;;
40058;SDS011;25763;49.972;8.568;2023-07-20T09:52:16;59.92;;;56.92;;
40058;SDS011;25763;49.972;8.568;2023-07-20T09:55:02;68.75;;;65.32;;
40058;SDS011;25763;49.972;8.568;2023-07-20T09:57:48;39.72;;;37.70;;
40058;SDS011;25763;49.972;8.568;2023-07-20T10:00:35;64.72;;;61.50;;
40058;SDS011;25763;49.972;8.568;2023-07-20T10:03:25;45.17;;;42.88;;
40058;SDS011;25763;49.972;8.568;2023-07-20T10:06:15;51.20;;;48.60;;
40058;SDS011;25763;49.972;8.568;2023-07-20T10:09:05;113.78;;;108.20;;
40058;SDS011;25763;49.972;8.568;2023-07-20T10:11:52;60.28;;;57.15;;
40058;SDS011;25763;49.972;8.568;2023-07-20T10:14:40;74.63;;;70.95;;
40058;SDS011;25763;49.972;8.568;2023-07-20T10:17:27;61.63;;;58.53;;
40058;SDS011;25763;49.972;8.568;2023-07-20T10:20:13;50.42;;;47.85;;
40058;SDS011;25763;49.972;8.568;2023-07-20T10:22:59;90.65;;;86.18;;
40058;SDS011;25763;49.972;8.568;2023-07-20T10:25:46;43.55;;;41.33;;
40058;SDS011;25763;49.972;8.568;2023-07-20T10:28:32;50.85;;;48.30;;
40058;SDS011;25763;49.972;8.568;2023-07-20T10:31:18;29.98;;;28.38;;
40058;SDS011;25763;49.972;8.568;2023-07-20T10:34:04;27.38;;;25.88;;
40058;SDS011;25763;49.972;8.568;2023-07-20T10:36:50;30.25;;;28.65;;
40058;SDS011;25763;49.972;8.568;2023-07-20T10:39:37;23.42;;;22.13;;
40058;SDS011;25763;49.972;8.568;2023-07-20T10:42:25;25.63;;;24.23;;
40058;SDS011;25763;49.972;8.568;2023-07-20T10:45:18;30.52;;;28.92;;
40058;SDS011;25763;49.972;8.568;2023-07-20T10:51:28;35.05;;;33.15;;
40058;SDS011;25763;49.972;8.568;2023-07-20T10:57:22;132.20;;;125.70;;
40058;SDS011;25763;49.972;8.568;2023-07-20T11:00:18;121.00;;;115.10;;
40058;SDS011;25763;49.972;8.568;2023-07-20T11:06:48;146.02;;;138.70;;
40058;SDS011;25763;49.972;8.568;2023-07-20T11:09:40;60.97;;;57.83;;
40058;SDS011;25763;49.972;8.568;2023-07-20T11:12:27;44.00;;;41.78;;
40058;SDS011;25763;49.972;8.568;2023-07-20T11:15:13;82.03;;;77.95;;
40058;SDS011;25763;49.972;8.568;2023-07-20T11:18:14;33.88;;;32.03;;
40058;SDS011;25763;49.972;8.568;2023-07-20T11:21:00;28.58;;;27.08;;
40058;SDS011;25763;49.972;8.568;2023-07-20T11:23:45;33.58;;;31.88;;
40058;SDS011;25763;49.972;8.568;2023-07-20T11:26:43;29.50;;;27.95;;
40058;SDS011;25763;49.972;8.568;2023-07-20T11:29:30;26.45;;;25.05;;
40058;SDS011;25763;49.972;8.568;2023-07-20T11:32:22;25.60;;;24.25;;
40058;SDS011;25763;49.972;8.568;2023-07-20T11:35:12;28.20;;;26.70;;
40058;SDS011;25763;49.972;8.568;2023-07-20T11:37:58;23.48;;;22.25;;
40058;SDS011;25763;49.972;8.568;2023-07-20T11:40:44;22.95;;;21.70;;
40058;SDS011;25763;49.972;8.568;2023-07-20T11:43:30;22.45;;;21.25;;
40058;SDS011;25763;49.972;8.568;2023-07-20T11:46:16;28.20;;;26.70;;
40058;SDS011;25763;49.972;8.568;2023-07-20T11:49:02;28.08;;;26.58;;
40058;SDS011;25763;49.972;8.568;2023-07-20T11:51:48;23.58;;;22.33;;
40058;SDS011;25763;49.972;8.568;2023-07-20T11:54:35;28.55;;;27.05;;
40058;SDS011;25763;49.972;8.568;2023-07-20T11:57:22;58.30;;;55.40;;
40058;SDS011;25763;49.972;8.568;2023-07-20T12:00:08;62.17;;;59.05;;
40058;SDS011;25763;49.972;8.568;2023-07-20T12:02:56;28.77;;;27.20;;
40058;SDS011;25763;49.972;8.568;2023-07-20T12:05:42;65.55;;;62.28;;
40058;SDS011;25763;49.972;8.568;2023-07-20T12:08:28;57.17;;;54.33;;
40058;SDS011;25763;49.972;8.568;2023-07-20T12:11:14;109.65;;;104.20;;
40058;SDS011;25763;49.972;8.568;2023-07-20T12:14:16;106.10;;;100.85;;
40058;SDS011;25763;49.972;8.568;2023-07-20T12:17:02;94.63;;;89.90;;
40058;SDS011;25763;49.972;8.568;2023-07-20T12:19:48;102.60;;;97.53;;
40058;SDS011;25763;49.972;8.568;2023-07-20T12:22:38;92.55;;;87.97;;
40058;SDS011;25763;49.972;8.568;2023-07-20T12:25:32;122.10;;;116.10;;
40058;SDS011;25763;49.972;8.568;2023-07-20T12:28:19;72.38;;;68.78;;
40058;SDS011;25763;49.972;8.568;2023-07-20T12:31:05;105.10;;;99.95;;
40058;SDS011;25763;49.972;8.568;2023-07-20T12:33:51;131.65;;;125.10;;
40058;SDS011;25763;49.972;8.568;2023-07-20T12:36:38;135.65;;;128.98;;
40058;SDS011;25763;49.972;8.568;2023-07-20T12:39:24;114.18;;;108.57;;
40058;SDS011;25763;49.972;8.568;2023-07-20T12:42:09;96.40;;;91.63;;
40058;SDS011;25763;49.972;8.568;2023-07-20T12:44:55;89.85;;;85.40;;
40058;SDS011;25763;49.972;8.568;2023-07-20T12:47:41;76.05;;;72.25;;
40058;SDS011;25763;49.972;8.568;2023-07-20T12:50:28;52.58;;;47.28;;
40058;SDS011;25763;49.972;8.568;2023-07-20T12:53:15;85.60;;;81.35;;
40058;SDS011;25763;49.972;8.568;2023-07-20T12:56:02;23.40;;;22.15;;
40058;SDS011;25763;49.972;8.568;2023-07-20T12:58:48;28.42;;;26.92;;
40058;SDS011;25763;49.972;8.568;2023-07-20T13:01:35;75.30;;;71.55;;
40058;SDS011;25763;49.972;8.568;2023-07-20T13:04:21;31.48;;;29.80;;
40058;SDS011;25763;49.972;8.568;2023-07-20T13:07:09;60.10;;;56.03;;
40058;SDS011;25763;49.972;8.568;2023-07-20T13:09:56;26.10;;;24.70;;
40058;SDS011;25763;49.972;8.568;2023-07-20T13:12:41;26.08;;;24.67;;
40058;SDS011;25763;49.972;8.568;2023-07-20T13:15:31;35.72;;;33.88;;
40058;SDS011;25763;49.972;8.568;2023-07-20T13:18:18;75.75;;;71.93;;
40058;SDS011;25763;49.972;8.568;2023-07-20T13:21:06;49.50;;;46.92;;
40058;SDS011;25763;49.972;8.568;2023-07-20T13:23:55;27.52;;;26.08;;
40058;SDS011;25763;49.972;8.568;2023-07-20T13:26:41;76.68;;;72.88;;
40058;SDS011;25763;49.972;8.568;2023-07-20T13:29:26;28.38;;;26.83;;
40058;SDS011;25763;49.972;8.568;2023-07-20T13:32:13;80.07;;;76.10;;
40058;SDS011;25763;49.972;8.568;2023-07-20T13:35:03;70.38;;;66.88;;
40058;SDS011;25763;49.972;8.568;2023-07-20T13:37:49;65.55;;;62.30;;
40058;SDS011;25763;49.972;8.568;2023-07-20T13:40:34;99.32;;;94.43;;
40058;SDS011;25763;49.972;8.568;2023-07-20T13:43:22;80.82;;;76.70;;
40058;SDS011;25763;49.972;8.568;2023-07-20T13:46:07;76.03;;;72.20;;
40058;SDS011;25763;49.972;8.568;2023-07-20T13:48:53;36.60;;;34.70;;
40058;SDS011;25763;49.972;8.568;2023-07-20T13:51:39;39.20;;;37.15;;
40058;SDS011;25763;49.972;8.568;2023-07-20T13:54:25;26.80;;;25.40;;
40058;SDS011;25763;49.972;8.568;2023-07-20T13:57:11;38.95;;;36.92;;
40058;SDS011;25763;49.972;8.568;2023-07-20T13:59:57;31.65;;;30.02;;
40058;SDS011;25763;49.972;8.568;2023-07-20T14:02:43;87.40;;;83.07;;
40058;SDS011;25763;49.972;8.568;2023-07-20T14:05:29;70.55;;;67.03;;
40058;SDS011;25763;49.972;8.568;2023-07-20T14:08:15;81.43;;;77.35;;
40058;SDS011;25763;49.972;8.568;2023-07-20T14:11:00;98.95;;;93.97;;
40058;SDS011;25763;49.972;8.568;2023-07-20T14:13:46;33.88;;;32.08;;
40058;SDS011;25763;49.972;8.568;2023-07-20T14:16:32;23.65;;;22.35;;
40058;SDS011;25763;49.972;8.568;2023-07-20T14:19:18;36.20;;;34.33;;
40058;SDS011;25763;49.972;8.568;2023-07-20T14:22:04;21.52;;;20.33;;
40058;SDS011;25763;49.972;8.568;2023-07-20T14:24:50;21.92;;;20.73;;
40058;SDS011;25763;49.972;8.568;2023-07-20T14:27:35;22.23;;;21.02;;
40058;SDS011;25763;49.972;8.568;2023-07-20T14:30:21;24.80;;;23.50;;
40058;SDS011;25763;49.972;8.568;2023-07-20T14:33:06;27.65;;;26.15;;
40058;SDS011;25763;49.972;8.568;2023-07-20T14:35:52;24.83;;;23.52;;
40058;SDS011;25763;49.972;8.568;2023-07-20T14:38:38;36.58;;;34.67;;
40058;SDS011;25763;49.972;8.568;2023-07-20T14:41:25;31.42;;;29.83;;
40058;SDS011;25763;49.972;8.568;2023-07-20T14:44:11;49.72;;;47.22;;
40058;SDS011;25763;49.972;8.568;2023-07-20T14:46:57;61.63;;;58.55;;
40058;SDS011;25763;49.972;8.568;2023-07-20T14:49:43;58.88;;;55.88;;
40058;SDS011;25763;49.972;8.568;2023-07-20T14:52:29;70.75;;;67.25;;
40058;SDS011;25763;49.972;8.568;2023-07-20T14:55:14;81.88;;;77.82;;
40058;SDS011;25763;49.972;8.568;2023-07-20T14:58:00;68.97;;;65.53;;
40058;SDS011;25763;49.972;8.568;2023-07-20T15:00:46;61.00;;;57.95;;
40058;SDS011;25763;49.972;8.568;2023-07-20T15:03:32;71.07;;;67.53;;
40058;SDS011;25763;49.972;8.568;2023-07-20T15:06:18;47.78;;;45.35;;
40058;SDS011;25763;49.972;8.568;2023-07-20T15:09:03;54.83;;;51.90;;
40058;SDS011;25763;49.972;8.568;2023-07-20T15:11:49;58.83;;;55.88;;
40058;SDS011;25763;49.972;8.568;2023-07-20T15:14:35;68.50;;;65.10;;
40058;SDS011;25763;49.972;8.568;2023-07-20T15:17:20;62.70;;;59.58;;
40058;SDS011;25763;49.972;8.568;2023-07-20T15:20:07;48.45;;;45.85;;
40058;SDS011;25763;49.972;8.568;2023-07-20T15:22:54;58.70;;;55.78;;
40058;SDS011;25763;49.972;8.568;2023-07-20T15:25:39;84.25;;;80.10;;
40058;SDS011;25763;49.972;8.568;2023-07-20T15:28:25;70.78;;;67.28;;
40058;SDS011;25763;49.972;8.568;2023-07-20T15:31:11;94.75;;;90.13;;
40058;SDS011;25763;49.972;8.568;2023-07-20T15:33:56;83.75;;;79.60;;
40058;SDS011;25763;49.972;8.568;2023-07-20T15:36:42;78.22;;;74.35;;
40058;SDS011;25763;49.972;8.568;2023-07-20T15:39:28;76.50;;;72.72;;
40058;SDS011;25763;49.972;8.568;2023-07-20T15:42:14;89.60;;;85.18;;
40058;SDS011;25763;49.972;8.568;2023-07-20T15:44:59;90.95;;;86.30;;
40058;SDS011;25763;49.972;8.568;2023-07-20T15:47:45;70.57;;;67.07;;
40058;SDS011;25763;49.972;8.568;2023-07-20T15:50:31;72.43;;;68.82;;
40058;SDS011;25763;49.972;8.568;2023-07-20T15:53:17;92.57;;;88.05;;
40058;SDS011;25763;49.972;8.568;2023-07-20T15:56:03;77.50;;;73.57;;
40058;SDS011;25763;49.972;8.568;2023-07-20T15:58:48;86.50;;;82.13;;
40058;SDS011;25763;49.972;8.568;2023-07-20T16:01:34;81.00;;;76.95;;
40058;SDS011;25763;49.972;8.568;2023-07-20T16:04:20;74.40;;;70.70;;
40058;SDS011;25763;49.972;8.568;2023-07-20T16:07:06;96.57;;;91.80;;
40058;SDS011;25763;49.972;8.568;2023-07-20T16:09:54;81.28;;;77.28;;
40058;SDS011;25763;49.972;8.568;2023-07-20T16:12:43;32.65;;;30.95;;
40058;SDS011;25763;49.972;8.568;2023-07-20T16:15:30;30.27;;;28.67;;
40058;SDS011;25763;49.972;8.568;2023-07-20T16:18:16;40.05;;;38.03;;